Time;durP1;ratioP1;P1;durP2;ratioP2;P2;SDS_P1;SDS_P2;PMS_P1;PMS_P2;Temp;Humidity;BMP_temperature;BMP_pressure;BME280_temperature;BME280_humidity;BME280_pressure;Samples;Min_cycle;Max_cycle;Signal;HPM_P1;HPM_P2
2024/04/15 00:00:11;;;;;;;13.85;3.20;;;8.10;99.90;;;;;;5341791;26;20242;-67
2024/04/15 00:02:43;;;;;;;18.35;3.22;;;8.10;99.90;;;;;;5342262;26;20327;-68
2024/04/15 00:05:09;;;;;;;23.83;3.50;;;8.10;99.90;;;;;;5342129;26;20833;-68
2024/04/15 00:07:36;;;;;;;15.98;3.55;;;8.00;99.90;;;;;;5366277;26;20238;-67
2024/04/15 00:10:03;;;;;;;19.75;3.38;;;8.00;99.90;;;;;;5338765;26;20280;-68
2024/04/15 00:12:29;;;;;;;20.42;3.33;;;8.00;99.90;;;;;;5397521;26;20242;-68
2024/04/15 00:14:54;;;;;;;14.85;3.42;;;7.90;99.90;;;;;;5342351;26;20956;-68
2024/04/15 00:17:20;;;;;;;18.33;3.35;;;7.90;99.90;;;;;;5340465;26;20294;-69
2024/04/15 00:19:46;;;;;;;20.33;3.38;;;7.90;99.90;;;;;;5343532;26;20390;-69
2024/04/15 00:22:11;;;;;;;17.58;3.35;;;7.90;99.90;;;;;;5337807;26;20230;-69
2024/04/15 00:24:37;;;;;;;15.55;3.47;;;7.80;99.90;;;;;;5338458;26;20344;-66
2024/04/15 00:27:03;;;;;;;21.42;3.70;;;7.80;99.90;;;;;;5340832;26;20238;-67
2024/04/15 00:29:29;;;;;;;16.25;3.67;;;7.80;99.90;;;;;;5339293;26;20294;-66
2024/04/15 00:31:55;;;;;;;17.80;3.50;;;7.80;99.90;;;;;;5336299;26;20296;-67
2024/04/15 00:34:22;;;;;;;17.80;3.55;;;7.80;99.90;;;;;;5401179;26;20230;-67
2024/04/15 00:36:47;;;;;;;12.70;3.58;;;7.70;99.90;;;;;;5341986;26;20242;-67
2024/04/15 00:39:13;;;;;;;20.70;3.22;;;7.70;99.90;;;;;;5340713;26;20333;-68
2024/04/15 00:41:39;;;;;;;16.65;3.35;;;7.70;99.90;;;;;;5342256;26;20313;-67
2024/04/15 00:44:04;;;;;;;14.75;3.17;;;7.70;99.90;;;;;;5356835;26;20352;-67
2024/04/15 00:46:30;;;;;;;15.10;3.22;;;7.70;99.90;;;;;;5338917;26;20237;-67
2024/04/15 00:48:57;;;;;;;18.45;3.83;;;7.70;99.90;;;;;;5340750;26;20245;-66
2024/04/15 00:51:24;;;;;;;22.92;3.70;;;7.60;99.90;;;;;;5341733;26;20250;-67
2024/04/15 00:53:52;;;;;;;24.55;3.35;;;7.60;99.90;;;;;;5337568;26;20813;-66
2024/04/15 00:56:20;;;;;;;15.52;3.10;;;7.60;99.90;;;;;;5339740;26;20246;-68
2024/04/15 00:58:46;;;;;;;22.60;3.47;;;7.60;99.90;;;;;;5340548;26;20234;-66
2024/04/15 01:01:13;;;;;;;16.15;3.50;;;7.60;99.90;;;;;;5340516;26;20245;-67
2024/04/15 01:03:39;;;;;;;25.52;3.90;;;7.60;99.90;;;;;;5337674;26;20254;-70
2024/04/15 01:06:05;;;;;;;17.85;3.17;;;7.50;99.90;;;;;;5392883;26;20578;-67
2024/04/15 01:08:32;;;;;;;16.33;3.25;;;7.50;99.90;;;;;;5343409;26;20271;-69
2024/04/15 01:10:58;;;;;;;15.25;3.30;;;7.50;99.90;;;;;;5337241;26;20276;-67
2024/04/15 01:13:25;;;;;;;22.48;3.10;;;7.50;99.90;;;;;;5338511;26;20242;-66
2024/04/15 01:16:00;;;;;;;14.32;3.50;;;7.50;99.90;;;;;;5340490;26;20337;-67
2024/04/15 01:18:26;;;;;;;23.27;3.22;;;7.50;99.90;;;;;;5338847;26;20294;-66
2024/04/15 01:20:54;;;;;;;16.23;3.08;;;7.40;99.90;;;;;;5342239;26;20279;-67
2024/04/15 01:23:24;;;;;;;11.23;3.28;;;7.40;99.90;;;;;;5338798;26;20277;-69
2024/04/15 01:25:50;;;;;;;14.65;3.17;;;7.40;99.90;;;;;;5338906;26;20302;-67
2024/04/15 01:28:20;;;;;;;20.77;3.17;;;7.40;99.90;;;;;;5334204;26;20863;-67
2024/04/15 01:30:49;;;;;;;12.40;3.05;;;7.40;99.90;;;;;;5340001;26;20326;-67
2024/04/15 01:33:14;;;;;;;17.02;3.78;;;7.30;99.90;;;;;;5340577;26;20339;-67
2024/04/15 01:35:40;;;;;;;17.20;3.30;;;7.30;99.90;;;;;;5342725;26;20250;-67
2024/04/15 01:38:06;;;;;;;11.45;3.05;;;7.30;99.90;;;;;;5395390;26;20238;-66
2024/04/15 01:40:32;;;;;;;23.35;3.67;;;7.30;99.90;;;;;;5337808;26;20238;-66
2024/04/15 01:42:57;;;;;;;19.23;4.15;;;7.20;99.90;;;;;;5340321;26;20764;-69
2024/04/15 01:45:23;;;;;;;17.80;3.85;;;7.20;99.90;;;;;;5337997;26;21062;-68
2024/04/15 01:47:49;;;;;;;20.05;3.70;;;7.20;99.90;;;;;;5393608;26;20807;-69
2024/04/15 01:50:16;;;;;;;14.93;3.33;;;7.20;99.90;;;;;;5341388;26;20234;-68
2024/04/15 01:52:44;;;;;;;17.13;3.88;;;7.20;99.90;;;;;;5340759;26;20354;-68
2024/04/15 01:55:10;;;;;;;21.05;3.10;;;7.20;99.90;;;;;;5337507;26;20289;-68
2024/04/15 01:57:36;;;;;;;19.65;3.78;;;7.20;99.90;;;;;;5342420;26;20258;-68
2024/04/15 02:00:06;;;;;;;19.88;3.90;;;7.20;99.90;;;;;;5337983;26;20570;-68
2024/04/15 02:02:37;;;;;;;17.88;3.55;;;7.20;99.90;;;;;;5335716;26;20294;-67
2024/04/15 02:05:05;;;;;;;14.98;3.70;;;7.20;99.90;;;;;;5341195;26;20326;-68
2024/04/15 02:07:31;;;;;;;19.35;4.18;;;7.30;99.90;;;;;;5340603;26;20344;-67
2024/04/15 02:09:57;;;;;;;18.40;3.58;;;7.30;99.90;;;;;;5340575;26;20259;-67
2024/04/15 02:12:23;;;;;;;11.05;3.42;;;7.30;99.90;;;;;;5342741;26;20276;-68
2024/04/15 02:14:49;;;;;;;16.30;4.15;;;7.40;99.90;;;;;;5343355;26;20277;-67
2024/04/15 02:17:15;;;;;;;16.88;3.67;;;7.50;99.90;;;;;;5400561;26;20698;-67
2024/04/15 02:19:40;;;;;;;19.50;4.13;;;7.50;99.90;;;;;;5348027;26;20295;-69
2024/04/15 02:22:06;;;;;;;23.67;3.88;;;7.60;99.90;;;;;;5342528;26;20234;-67
2024/04/15 02:24:32;;;;;;;15.15;3.55;;;7.70;99.90;;;;;;5397988;26;20304;-68
2024/04/15 02:26:57;;;;;;;21.48;3.80;;;7.70;99.90;;;;;;5311046;26;20480;-67
2024/04/15 02:29:23;;;;;;;12.10;3.25;;;7.70;99.90;;;;;;5398823;26;20404;-68
2024/04/15 02:31:49;;;;;;;12.73;3.40;;;7.80;99.90;;;;;;5341578;26;20309;-68
2024/04/15 02:34:17;;;;;;;17.88;3.80;;;7.90;99.90;;;;;;5341148;26;20391;-67
2024/04/15 02:36:42;;;;;;;15.35;3.40;;;7.90;99.90;;;;;;5340291;26;20282;-68
2024/04/15 02:39:08;;;;;;;14.23;3.47;;;8.00;99.90;;;;;;5344509;26;20269;-69
2024/04/15 02:41:34;;;;;;;16.90;3.45;;;8.00;99.90;;;;;;5341017;26;20238;-68
2024/04/15 02:44:00;;;;;;;17.13;3.70;;;8.00;99.90;;;;;;5347289;26;20599;-69
2024/04/15 02:46:25;;;;;;;15.93;3.60;;;8.10;99.90;;;;;;5340597;26;20286;-67
2024/04/15 02:48:51;;;;;;;16.80;3.20;;;8.10;99.90;;;;;;5341548;26;21465;-69
2024/04/15 02:51:17;;;;;;;19.38;3.33;;;8.20;99.90;;;;;;5340366;26;20260;-68
2024/04/15 02:53:43;;;;;;;13.48;3.47;;;8.20;99.90;;;;;;5343391;26;20237;-67
2024/04/15 02:56:08;;;;;;;19.92;3.45;;;8.30;99.90;;;;;;5343708;26;20614;-66
2024/04/15 02:58:34;;;;;;;11.75;2.90;;;8.30;99.90;;;;;;5339084;26;20706;-67
2024/04/15 03:01:00;;;;;;;16.25;3.30;;;8.40;99.90;;;;;;5344817;26;20350;-67
2024/04/15 03:03:25;;;;;;;17.40;3.10;;;8.40;99.90;;;;;;5341056;26;20272;-68
2024/04/15 03:05:51;;;;;;;8.98;2.97;;;8.40;99.90;;;;;;5340158;26;20242;-68
2024/04/15 03:08:17;;;;;;;13.98;3.40;;;8.40;99.90;;;;;;5400093;26;20242;-67
2024/04/15 03:10:42;;;;;;;14.00;3.35;;;8.40;99.90;;;;;;5341216;26;20377;-69
2024/04/15 03:13:08;;;;;;;17.52;3.17;;;8.50;99.90;;;;;;5341564;26;20297;-68
2024/04/15 03:15:34;;;;;;;11.20;3.03;;;8.50;99.90;;;;;;5341019;26;20247;-66
2024/04/15 03:18:01;;;;;;;17.85;3.30;;;8.50;99.90;;;;;;5396814;26;20269;-67
2024/04/15 03:20:27;;;;;;;15.68;3.60;;;8.50;99.90;;;;;;5348505;26;20231;-69
2024/04/15 03:22:52;;;;;;;12.80;3.08;;;8.50;99.90;;;;;;5340648;26;20253;-67
2024/04/15 03:25:19;;;;;;;13.48;3.08;;;8.50;99.90;;;;;;5341177;26;20608;-68
2024/04/15 03:27:48;;;;;;;11.68;3.28;;;8.60;99.90;;;;;;5344160;26;20726;-68
2024/04/15 03:30:15;;;;;;;15.70;3.00;;;8.50;99.90;;;;;;5336992;26;20281;-68
2024/04/15 03:32:40;;;;;;;10.32;3.10;;;8.60;99.90;;;;;;5338852;26;20229;-68
2024/04/15 03:35:14;;;;;;;11.95;3.40;;;8.50;99.90;;;;;;5341442;26;20318;-68
2024/04/15 03:37:40;;;;;;;10.27;2.80;;;8.60;99.90;;;;;;5341506;26;20234;-67
2024/04/15 03:40:06;;;;;;;13.55;3.05;;;8.60;99.90;;;;;;5341124;26;20250;-69
2024/04/15 03:42:32;;;;;;;13.30;3.00;;;8.60;99.90;;;;;;5342340;26;20298;-67
2024/04/15 03:44:58;;;;;;;13.07;3.00;;;8.60;99.90;;;;;;5340163;26;20293;-68
2024/04/15 03:47:24;;;;;;;11.90;3.28;;;8.60;99.90;;;;;;5343206;26;20356;-66
2024/04/15 03:49:49;;;;;;;13.55;3.30;;;8.60;99.90;;;;;;5341554;26;20541;-67
2024/04/15 03:52:15;;;;;;;9.43;2.92;;;8.60;99.90;;;;;;5340218;26;20777;-67
2024/04/15 03:54:41;;;;;;;14.60;3.20;;;8.60;99.90;;;;;;5341603;26;20411;-66
2024/04/15 03:57:11;;;;;;;12.90;3.20;;;8.60;99.90;;;;;;5342503;26;20237;-68
2024/04/15 03:59:36;;;;;;;15.82;2.85;;;8.70;99.90;;;;;;5339891;26;21322;-67
2024/04/15 04:02:03;;;;;;;7.88;2.80;;;8.60;99.90;;;;;;5341908;26;20293;-67
2024/04/15 04:04:31;;;;;;;11.68;3.30;;;8.70;99.90;;;;;;5401526;26;20688;-67
2024/04/15 04:07:01;;;;;;;20.58;3.78;;;8.70;99.90;;;;;;5337783;26;20298;-67
2024/04/15 04:09:26;;;;;;;12.07;3.22;;;8.60;99.90;;;;;;5342630;26;20806;-68
2024/04/15 04:11:53;;;;;;;9.25;3.10;;;8.60;99.90;;;;;;5399203;26;20280;-67
2024/04/15 04:14:18;;;;;;;10.55;3.42;;;8.70;99.90;;;;;;5340003;26;20614;-68
2024/04/15 04:16:44;;;;;;;11.73;3.60;;;8.70;99.90;;;;;;5343038;26;20235;-68
2024/04/15 04:19:10;;;;;;;13.48;3.75;;;8.70;99.90;;;;;;5396033;26;20254;-67
2024/04/15 04:21:35;;;;;;;9.85;3.40;;;8.70;99.90;;;;;;5339827;26;20242;-67
2024/04/15 04:24:01;;;;;;;9.02;3.17;;;8.70;99.90;;;;;;5342992;26;20299;-68
2024/04/15 04:26:27;;;;;;;12.55;3.53;;;8.70;99.90;;;;;;5341465;26;20746;-69
2024/04/15 04:28:56;;;;;;;11.55;3.75;;;8.70;99.90;;;;;;5340991;26;20245;-66
2024/04/15 04:31:22;;;;;;;9.60;3.30;;;8.70;99.90;;;;;;5338275;26;20371;-67
2024/04/15 04:33:47;;;;;;;13.18;3.78;;;8.70;99.90;;;;;;5340550;26;20238;-67
2024/04/15 04:36:17;;;;;;;12.32;3.58;;;8.70;99.90;;;;;;5344397;26;20239;-68
2024/04/15 04:38:43;;;;;;;13.80;3.60;;;8.70;99.90;;;;;;5342389;26;21106;-67
2024/04/15 04:41:09;;;;;;;8.43;3.70;;;8.60;99.90;;;;;;5339814;26;20284;-68
2024/04/15 04:43:35;;;;;;;15.30;3.70;;;8.70;99.90;;;;;;5342981;26;21473;-68
2024/04/15 04:46:11;;;;;;;15.25;4.38;;;8.60;99.90;;;;;;5341278;26;20247;-68
2024/04/15 04:48:37;;;;;;;8.82;3.45;;;8.60;99.90;;;;;;5342070;26;20733;-67
2024/04/15 04:51:07;;;;;;;17.85;4.07;;;8.60;99.90;;;;;;5341568;26;20302;-67
2024/04/15 04:53:33;;;;;;;12.10;4.20;;;8.60;99.90;;;;;;5338260;26;20285;-67
2024/04/15 04:56:06;;;;;;;12.82;4.43;;;8.60;99.90;;;;;;5341540;26;20235;-67
2024/04/15 04:58:31;;;;;;;14.02;4.45;;;8.60;99.90;;;;;;5342841;26;20234;-67
2024/04/15 05:01:06;;;;;;;15.65;4.63;;;8.50;99.90;;;;;;5370511;26;20241;-69
2024/04/15 05:03:31;;;;;;;10.73;4.35;;;8.50;99.90;;;;;;5344078;26;20232;-68
2024/04/15 05:05:57;;;;;;;13.45;4.75;;;8.50;99.90;;;;;;5341639;26;20641;-69
2024/04/15 05:08:23;;;;;;;14.48;4.65;;;8.50;99.90;;;;;;5344800;26;20355;-69
2024/04/15 05:10:48;;;;;;;15.27;5.20;;;8.50;99.90;;;;;;5350580;26;20238;-66
2024/04/15 05:13:14;;;;;;;12.00;4.43;;;8.50;99.90;;;;;;5357978;26;20244;-65
2024/04/15 05:15:40;;;;;;;18.48;4.65;;;8.50;99.90;;;;;;5349096;26;20225;-67
2024/04/15 05:18:05;;;;;;;9.85;4.47;;;8.50;99.90;;;;;;5351742;26;20237;-68
2024/04/15 05:20:36;;;;;;;16.50;4.75;;;8.50;99.90;;;;;;5353556;26;20267;-68
2024/04/15 05:23:02;;;;;;;11.57;4.65;;;8.50;99.90;;;;;;5347139;26;20702;-67
2024/04/15 05:25:28;;;;;;;10.65;4.68;;;8.50;99.90;;;;;;5344856;26;20273;-66
2024/04/15 05:27:54;;;;;;;14.05;5.82;;;8.50;99.90;;;;;;5373075;26;20765;-68
2024/04/15 05:30:19;;;;;;;23.02;5.03;;;8.50;99.90;;;;;;5344209;26;20300;-67
2024/04/15 05:32:45;;;;;;;12.25;5.13;;;8.60;99.90;;;;;;5350869;26;20234;-67
2024/04/15 05:35:11;;;;;;;10.63;4.75;;;8.60;99.90;;;;;;5354462;26;20280;-67
2024/04/15 05:37:36;;;;;;;15.57;4.70;;;8.60;99.90;;;;;;5350168;26;20242;-67
2024/04/15 05:40:03;;;;;;;16.35;5.38;;;8.60;99.90;;;;;;5357375;26;20366;-68
2024/04/15 05:42:29;;;;;;;17.75;4.93;;;8.70;99.90;;;;;;5351280;26;20296;-67
2024/04/15 05:44:55;;;;;;;11.25;4.97;;;8.70;99.90;;;;;;5347773;26;20233;-66
2024/04/15 05:47:21;;;;;;;14.32;5.53;;;8.70;99.90;;;;;;5350116;26;20789;-67
2024/04/15 05:49:47;;;;;;;11.88;5.28;;;8.70;99.90;;;;;;5373099;26;20357;-67
2024/04/15 05:52:12;;;;;;;12.15;5.15;;;8.70;99.90;;;;;;5348518;26;20237;-67
2024/04/15 05:54:38;;;;;;;23.00;5.63;;;8.70;99.90;;;;;;5350478;26;20354;-68
2024/04/15 05:57:04;;;;;;;14.25;5.63;;;8.80;99.90;;;;;;5351152;26;20231;-67
2024/04/15 05:59:30;;;;;;;14.60;5.47;;;8.80;99.90;;;;;;5343842;26;20230;-67
2024/04/15 06:01:55;;;;;;;16.98;5.30;;;8.80;99.90;;;;;;5407741;26;20276;-67
2024/04/15 06:04:21;;;;;;;11.40;5.20;;;8.90;99.90;;;;;;5351759;26;20229;-66
2024/04/15 06:06:49;;;;;;;19.77;5.85;;;8.90;99.90;;;;;;5349520;26;20315;-67
2024/04/15 06:09:14;;;;;;;16.33;5.80;;;9.00;99.90;;;;;;5349128;26;20260;-67
2024/04/15 06:11:40;;;;;;;17.40;5.43;;;9.00;99.90;;;;;;5349470;26;20230;-67
2024/04/15 06:14:06;;;;;;;19.55;5.55;;;9.00;99.90;;;;;;5353957;26;20245;-67
2024/04/15 06:16:31;;;;;;;14.38;5.82;;;9.10;99.90;;;;;;5350630;26;20230;-67
2024/04/15 06:18:57;;;;;;;14.40;5.75;;;9.20;99.90;;;;;;5349914;26;20230;-67
2024/04/15 06:21:23;;;;;;;19.85;6.30;;;9.20;99.90;;;;;;5349897;26;20308;-67
2024/04/15 06:23:48;;;;;;;22.00;5.38;;;9.20;99.90;;;;;;5363411;26;20575;-67
2024/04/15 06:26:14;;;;;;;16.77;5.97;;;9.30;99.90;;;;;;5345120;26;20273;-67
2024/04/15 06:28:40;;;;;;;14.18;5.82;;;9.40;99.90;;;;;;5348167;26;20245;-67
2024/04/15 06:31:06;;;;;;;16.80;6.05;;;9.40;99.90;;;;;;5353723;26;20330;-65
2024/04/15 06:33:32;;;;;;;15.10;5.53;;;9.50;99.90;;;;;;5348525;26;20272;-67
2024/04/15 06:35:57;;;;;;;19.33;5.80;;;9.50;99.90;;;;;;5355345;26;20241;-67
2024/04/15 06:38:24;;;;;;;13.45;4.97;;;9.60;99.90;;;;;;5347319;26;20723;-68
2024/04/15 06:40:49;;;;;;;20.73;5.88;;;9.70;99.90;;;;;;5350477;26;20240;-68
2024/04/15 06:43:15;;;;;;;16.45;5.95;;;9.70;99.90;;;;;;5354951;26;20319;-68
2024/04/15 06:45:41;;;;;;;12.35;5.53;;;9.80;99.90;;;;;;5351560;26;20347;-67
2024/04/15 06:48:06;;;;;;;16.88;5.35;;;9.90;99.90;;;;;;5411235;26;20288;-67
2024/04/15 06:50:32;;;;;;;18.58;5.30;;;10.00;99.90;;;;;;5348317;26;20281;-65
2024/04/15 06:53:03;;;;;;;18.55;5.60;;;10.20;99.90;;;;;;5348924;26;20229;-68
2024/04/15 06:55:29;;;;;;;17.33;5.10;;;10.30;99.90;;;;;;5346368;26;20797;-68
2024/04/15 06:57:56;;;;;;;20.38;5.80;;;10.50;99.90;;;;;;5351252;26;20225;-68
2024/04/15 07:00:21;;;;;;;16.48;5.85;;;10.60;99.90;;;;;;5351712;26;20343;-68
2024/04/15 07:02:50;;;;;;;15.18;5.32;;;10.80;99.90;;;;;;5350134;26;20229;-68
2024/04/15 07:05:16;;;;;;;16.33;5.80;;;10.90;99.90;;;;;;5342297;26;20237;-68
2024/04/15 07:07:42;;;;;;;13.90;5.90;;;11.00;99.90;;;;;;5344311;26;21028;-67
2024/04/15 07:10:08;;;;;;;16.73;5.75;;;11.20;99.90;;;;;;5348254;26;20226;-67
2024/04/15 07:12:33;;;;;;;24.48;6.22;;;11.20;99.90;;;;;;5349258;26;20246;-69
2024/04/15 07:14:59;;;;;;;16.15;6.40;;;11.20;99.90;;;;;;5352543;26;20726;-68
2024/04/15 07:17:25;;;;;;;20.98;6.30;;;11.30;99.90;;;;;;5346672;26;20298;-69
2024/04/15 07:19:50;;;;;;;17.30;6.13;;;11.30;99.90;;;;;;5410015;26;20301;-69
2024/04/15 07:22:18;;;;;;;19.40;6.38;;;11.30;99.90;;;;;;5351098;26;20260;-68
2024/04/15 07:24:44;;;;;;;21.33;6.70;;;11.40;99.90;;;;;;5348204;26;20290;-67
2024/04/15 07:27:11;;;;;;;20.10;7.10;;;11.50;99.90;;;;;;5352428;26;20233;-68
2024/04/15 07:29:36;;;;;;;19.33;6.78;;;11.60;99.90;;;;;;5346408;26;20250;-68
2024/04/15 07:32:04;;;;;;;19.42;6.68;;;11.70;99.90;;;;;;5404052;26;20281;-67
2024/04/15 07:34:30;;;;;;;18.27;5.80;;;11.80;99.90;;;;;;5347044;26;20649;-68
2024/04/15 07:36:56;;;;;;;16.15;6.18;;;12.00;99.90;;;;;;5346064;26;20308;-68
2024/04/15 07:39:22;;;;;;;14.05;5.40;;;12.10;99.90;;;;;;5409142;26;20699;-69
2024/04/15 07:41:47;;;;;;;20.35;6.10;;;12.20;99.90;;;;;;5342784;26;20529;-68
2024/04/15 07:44:13;;;;;;;18.17;6.03;;;12.30;99.90;;;;;;5345315;26;20230;-68
2024/04/15 07:46:39;;;;;;;15.15;5.57;;;12.30;99.90;;;;;;5344776;26;20268;-66
2024/04/15 07:49:04;;;;;;;13.88;4.80;;;12.30;99.90;;;;;;5348296;26;20233;-66
2024/04/15 07:51:30;;;;;;;20.95;4.85;;;12.40;99.90;;;;;;5345069;26;20285;-68
2024/04/15 07:53:56;;;;;;;21.23;4.82;;;12.30;99.90;;;;;;5398782;26;20331;-67
2024/04/15 07:56:21;;;;;;;11.93;4.00;;;12.40;99.90;;;;;;5345363;26;20226;-68
2024/04/15 07:58:47;;;;;;;15.27;4.50;;;12.50;99.90;;;;;;5342041;26;20242;-67
2024/04/15 08:01:13;;;;;;;14.38;4.20;;;12.50;99.90;;;;;;5348327;26;20352;-66
2024/04/15 08:03:38;;;;;;;20.17;4.63;;;12.50;99.90;;;;;;5349951;26;20234;-68
2024/04/15 08:06:04;;;;;;;18.17;4.57;;;12.60;99.90;;;;;;5343257;26;20285;-69
2024/04/15 08:08:30;;;;;;;15.93;4.38;;;12.60;99.90;;;;;;5349017;26;20747;-68
2024/04/15 08:10:55;;;;;;;19.38;4.43;;;12.70;99.90;;;;;;5343848;26;20273;-69
2024/04/15 08:13:21;;;;;;;10.45;4.25;;;12.80;99.90;;;;;;5341245;26;20277;-68
2024/04/15 08:15:47;;;;;;;16.42;4.55;;;12.90;99.90;;;;;;5342137;26;20583;-68
2024/04/15 08:18:13;;;;;;;21.35;4.35;;;12.90;99.90;;;;;;5339860;26;20231;-67
2024/04/15 08:20:39;;;;;;;21.27;4.03;;;13.00;99.90;;;;;;5345309;26;20265;-65
2024/04/15 08:23:04;;;;;;;13.25;3.85;;;13.10;99.90;;;;;;5346405;26;20227;-67
2024/04/15 08:25:30;;;;;;;22.13;3.80;;;13.20;99.90;;;;;;5345868;26;20231;-68
2024/04/15 08:27:56;;;;;;;19.23;3.95;;;13.30;99.90;;;;;;5399324;26;20233;-67
2024/04/15 08:30:23;;;;;;;12.68;3.30;;;13.50;99.90;;;;;;5341511;26;20281;-72
2024/04/15 08:32:51;;;;;;;10.65;3.63;;;13.60;99.90;;;;;;5349836;26;20227;-73
2024/04/15 08:35:17;;;;;;;13.02;3.60;;;13.70;99.90;;;;;;5343418;26;20246;-67
2024/04/15 08:37:43;;;;;;;17.50;3.70;;;13.80;99.90;;;;;;5349258;26;20535;-67
2024/04/15 08:40:10;;;;;;;14.15;3.25;;;13.90;99.90;;;;;;5396557;26;20233;-69
2024/04/15 08:42:48;;;;;;;12.43;3.58;;;14.00;99.90;;;;;;5339777;26;20282;-68
2024/04/15 08:45:23;;;;;;;11.60;3.35;;;14.00;99.90;;;;;;5345923;26;20339;-68
2024/04/15 08:47:52;;;;;;;14.52;3.10;;;13.90;99.90;;;;;;5341889;26;20754;-68
2024/04/15 08:50:21;;;;;;;13.15;3.65;;;14.00;99.90;;;;;;5344653;26;20242;-67
2024/04/15 08:52:49;;;;;;;12.18;2.70;;;14.10;99.90;;;;;;5342188;26;20246;-67
2024/04/15 08:55:16;;;;;;;10.48;2.50;;;14.10;99.90;;;;;;5344427;26;20373;-70
2024/04/15 08:57:43;;;;;;;8.68;2.60;;;14.10;99.90;;;;;;5349838;26;20249;-69
2024/04/15 09:00:12;;;;;;;9.20;2.70;;;14.20;99.90;;;;;;5345030;26;20301;-69
2024/04/15 09:02:38;;;;;;;13.32;3.00;;;14.20;99.90;;;;;;5353417;26;20567;-68
2024/04/15 09:05:04;;;;;;;12.05;3.05;;;14.20;99.90;;;;;;5344903;26;21472;-69
2024/04/15 09:07:30;;;;;;;14.50;3.20;;;14.20;99.90;;;;;;5350448;26;20237;-67
2024/04/15 09:09:56;;;;;;;10.40;3.00;;;14.30;99.90;;;;;;5347855;26;20344;-69
2024/04/15 09:12:22;;;;;;;6.72;2.45;;;14.30;99.90;;;;;;5340982;26;20282;-67
2024/04/15 09:14:48;;;;;;;8.32;2.83;;;14.40;99.90;;;;;;5345346;26;20291;-69
2024/04/15 09:17:15;;;;;;;9.57;3.08;;;14.40;99.90;;;;;;5347247;26;20672;-67
2024/04/15 09:19:47;;;;;;;6.82;2.92;;;14.50;99.90;;;;;;5346715;26;20274;-69
2024/04/15 09:22:13;;;;;;;11.65;4.32;;;14.50;99.90;;;;;;5343318;26;20235;-68
2024/04/15 09:24:38;;;;;;;14.15;4.07;;;14.60;99.90;;;;;;5375937;26;20267;-68
2024/04/15 09:27:04;;;;;;;9.80;3.08;;;14.70;99.90;;;;;;5350516;26;21121;-70
2024/04/15 09:29:30;;;;;;;7.72;2.30;;;14.80;99.90;;;;;;5348012;26;20233;-68
2024/04/15 09:31:56;;;;;;;15.00;2.92;;;14.80;99.90;;;;;;5350498;26;20285;-69
2024/04/15 09:34:22;;;;;;;10.90;2.42;;;14.90;99.90;;;;;;5372933;26;20283;-68
2024/04/15 09:37:08;;;;;;;9.98;2.63;;;14.90;99.90;;;;;;5348741;26;20717;-67
2024/04/15 09:39:36;;;;;;;9.90;2.47;;;14.90;99.90;;;;;;5343418;26;20530;-68
2024/04/15 09:42:02;;;;;;;7.70;2.10;;;14.90;99.90;;;;;;5345387;26;20242;-69
2024/04/15 09:44:29;;;;;;;7.85;2.30;;;14.80;99.90;;;;;;5348566;26;20226;-68
2024/04/15 09:46:57;;;;;;;10.70;2.25;;;14.80;99.90;;;;;;5350642;26;20230;-67
2024/04/15 09:49:24;;;;;;;9.13;2.22;;;14.80;99.90;;;;;;5352694;26;20233;-67
2024/04/15 09:51:51;;;;;;;5.88;1.90;;;14.80;99.90;;;;;;5351611;26;20280;-67
2024/04/15 09:54:30;;;;;;;11.52;2.70;;;14.80;99.90;;;;;;5352164;26;20237;-67
2024/04/15 09:57:05;;;;;;;10.55;2.20;;;14.80;99.90;;;;;;5352619;26;20466;-66
2024/04/15 09:59:38;;;;;;;8.27;2.20;;;14.90;99.90;;;;;;5349300;26;20345;-69
2024/04/15 10:02:12;;;;;;;10.93;2.28;;;15.00;99.90;;;;;;5391778;26;20642;-67
2024/04/15 10:04:43;;;;;;;12.90;2.38;;;15.10;99.90;;;;;;5343586;26;20297;-68
2024/04/15 10:07:11;;;;;;;9.88;2.47;;;15.10;99.90;;;;;;5347448;26;20279;-67
2024/04/15 10:09:38;;;;;;;9.77;2.33;;;15.20;99.90;;;;;;5319946;26;20526;-66
2024/04/15 10:12:05;;;;;;;11.55;2.28;;;15.30;99.90;;;;;;5351372;26;20294;-67
2024/04/15 10:14:31;;;;;;;8.88;2.28;;;15.30;99.90;;;;;;5342729;26;20239;-68
2024/04/15 10:16:57;;;;;;;9.82;2.55;;;15.30;99.90;;;;;;5346124;26;20235;-67
2024/04/15 10:19:25;;;;;;;5.97;2.35;;;15.30;99.90;;;;;;5349794;26;20237;-68
2024/04/15 10:21:51;;;;;;;9.98;2.03;;;15.20;99.90;;;;;;5360806;26;20235;-67
2024/04/15 10:24:16;;;;;;;9.75;2.05;;;15.20;99.90;;;;;;5350800;26;20274;-67
2024/04/15 10:26:43;;;;;;;6.70;2.38;;;15.20;99.90;;;;;;5344814;26;20229;-66
2024/04/15 10:29:20;;;;;;;6.78;2.00;;;15.00;99.90;;;;;;5350043;26;20238;-68
2024/04/15 10:31:56;;;;;;;8.00;2.17;;;14.90;99.90;;;;;;5346259;26;20237;-67
2024/04/15 10:34:24;;;;;;;7.35;2.20;;;14.80;99.90;;;;;;5347258;26;20272;-66
2024/04/15 10:36:50;;;;;;;5.45;2.00;;;14.80;99.90;;;;;;5353382;26;20272;-66
2024/04/15 10:39:17;;;;;;;6.55;2.25;;;14.70;99.90;;;;;;5350474;26;20234;-67
2024/04/15 10:41:44;;;;;;;7.47;2.03;;;14.50;99.90;;;;;;5348458;26;20611;-67
2024/04/15 10:44:10;;;;;;;6.43;1.95;;;14.50;99.90;;;;;;5344628;26;20234;-68
2024/04/15 10:46:44;;;;;;;12.05;2.13;;;14.40;99.90;;;;;;5343593;26;20336;-67
2024/04/15 10:49:10;;;;;;;5.85;2.05;;;14.30;99.90;;;;;;5351949;26;20242;-66
2024/04/15 10:51:36;;;;;;;5.90;2.65;;;14.20;99.90;;;;;;5347375;26;21621;-67
2024/04/15 10:54:02;;;;;;;9.45;2.55;;;14.20;99.90;;;;;;5406656;26;20553;-70
2024/04/15 10:56:28;;;;;;;8.35;2.47;;;14.20;99.90;;;;;;5352551;26;20229;-68
2024/04/15 10:58:53;;;;;;;10.48;2.55;;;14.10;99.90;;;;;;5348053;26;20598;-68
2024/04/15 11:01:19;;;;;;;13.70;3.42;;;14.10;99.90;;;;;;5351429;26;20242;-69
2024/04/15 11:03:47;;;;;;;8.65;2.30;;;14.10;99.90;;;;;;5344085;26;20235;-68
2024/04/15 11:06:13;;;;;;;11.30;3.03;;;14.30;99.90;;;;;;5351251;26;20281;-67
2024/04/15 11:08:39;;;;;;;9.15;3.03;;;14.50;99.90;;;;;;5344739;26;20286;-67
2024/04/15 11:11:08;;;;;;;14.23;5.03;;;14.60;99.90;;;;;;5354103;26;20233;-67
2024/04/15 11:13:34;;;;;;;6.20;2.72;;;14.60;99.90;;;;;;5343930;26;20231;-68
2024/04/15 11:16:01;;;;;;;6.75;2.60;;;14.70;99.90;;;;;;5347759;26;20340;-73
2024/04/15 11:18:26;;;;;;;6.95;2.47;;;14.60;99.90;;;;;;5402457;26;20254;-68
2024/04/15 11:20:59;;;;;;;11.57;3.05;;;14.60;99.90;;;;;;5401472;26;20693;-67
2024/04/15 11:23:31;;;;;;;11.48;3.33;;;14.50;99.90;;;;;;5348779;26;20405;-67
2024/04/15 11:26:00;;;;;;;8.70;3.30;;;14.30;99.90;;;;;;5338226;26;20234;-67
2024/04/15 11:28:26;;;;;;;8.95;3.20;;;14.10;99.90;;;;;;5346505;26;20324;-67
2024/04/15 11:30:55;;;;;;;10.38;3.45;;;13.90;99.90;;;;;;5355278;26;20283;-68
2024/04/15 11:33:23;;;;;;;12.40;3.22;;;13.80;99.90;;;;;;5354710;26;20238;-68
2024/04/15 11:35:50;;;;;;;7.30;2.92;;;13.60;99.90;;;;;;5375229;26;20276;-66
2024/04/15 11:38:17;;;;;;;8.20;2.47;;;13.60;99.90;;;;;;5349347;26;20670;-68
2024/04/15 11:40:44;;;;;;;9.10;2.58;;;13.40;99.90;;;;;;5348178;26;20361;-68
2024/04/15 11:43:09;;;;;;;10.40;3.00;;;13.20;99.90;;;;;;5350064;26;20280;-66
2024/04/15 11:45:35;;;;;;;7.50;3.13;;;13.00;99.90;;;;;;5343227;26;20234;-66
2024/04/15 11:48:01;;;;;;;7.03;3.78;;;12.90;99.90;;;;;;5348122;26;20344;-66
2024/04/15 11:50:27;;;;;;;6.93;4.18;;;12.70;99.90;;;;;;5343269;26;20563;-67
2024/04/15 11:52:59;;;;;;;11.57;5.55;;;12.60;99.90;;;;;;5350677;26;20578;-68
2024/04/15 11:55:25;;;;;;;11.63;5.18;;;12.40;99.90;;;;;;5341153;26;20233;-68
2024/04/15 11:57:51;;;;;;;8.88;5.05;;;12.30;99.90;;;;;;5345537;26;20328;-68
2024/04/15 12:00:17;;;;;;;11.88;5.82;;;12.20;99.90;;;;;;5346257;26;20536;-67
2024/04/15 12:02:47;;;;;;;13.38;6.45;;;12.10;99.90;;;;;;5349120;26;20604;-67
2024/04/15 12:05:13;;;;;;;14.18;6.45;;;12.10;99.90;;;;;;5343489;26;20265;-67
2024/04/15 12:07:40;;;;;;;14.38;7.13;;;12.10;99.90;;;;;;5348197;26;20231;-67
2024/04/15 12:10:06;;;;;;;12.38;6.88;;;12.10;99.90;;;;;;5345807;26;20266;-68
2024/04/15 12:12:32;;;;;;;13.35;6.70;;;12.20;99.90;;;;;;5349987;26;20245;-67
2024/04/15 12:14:57;;;;;;;13.23;7.25;;;12.10;99.90;;;;;;5340602;26;20273;-66
2024/04/15 12:17:24;;;;;;;17.38;8.05;;;12.20;99.90;;;;;;5346119;26;20347;-67
2024/04/15 12:19:50;;;;;;;13.82;7.63;;;12.10;99.90;;;;;;5342810;26;20234;-68
2024/04/15 12:22:15;;;;;;;12.65;7.43;;;12.10;99.90;;;;;;5404942;26;20242;-67
2024/04/15 12:24:41;;;;;;;12.30;7.47;;;12.10;99.90;;;;;;5347640;26;20730;-67
2024/04/15 12:27:07;;;;;;;16.00;7.88;;;12.00;99.90;;;;;;5341993;26;20233;-68
2024/04/15 12:29:33;;;;;;;19.08;7.13;;;12.00;99.90;;;;;;5342366;26;20234;-67
2024/04/15 12:31:58;;;;;;;12.38;6.43;;;12.00;99.90;;;;;;5349303;26;20276;-68
2024/04/15 12:34:25;;;;;;;14.93;7.70;;;11.90;99.90;;;;;;5352458;26;20238;-67
2024/04/15 12:36:50;;;;;;;14.18;6.90;;;11.80;99.90;;;;;;5342453;26;20345;-68
2024/04/15 12:39:16;;;;;;;12.65;6.70;;;11.80;99.90;;;;;;5341562;26;20243;-67